METAR AND TAF INFORMATION
METAR FOR KESN
ADDS - METARS form results

(0422 UTC 26 February 2021)
Data provider http://aviationweather.gov/metar/data/
 
METAR text: KESN 260415Z AUTO 00000KT 10SM CLR 02/M04 A3034 RMK AO2 T00181043
Conditions at: KESN (EASTON/NEWNAM , MD, US) observed 0415 UTC 26 February 2021
Temperature: 1.8°C (35°F)
Dewpoint: -4.3°C (24°F) [RH = 64%]
Pressure (altimeter): 30.34 inches Hg (1027.5 mb)
Winds: calm
Visibility: 10 or more miles (16+ km)
Ceiling: at least 12,000 feet AGL
Clouds: sky clear below 12,000 feet AGL
Weather: automated observation with no human augmentation;
there may or may not be significant weather present at this time

METAR text: KESN 260355Z AUTO 00000KT 10SM CLR 01/M04 A3034 RMK AO2 T00131037
Conditions at: KESN (EASTON/NEWNAM , MD, US) observed 0355 UTC 26 February 2021
Temperature: 1.3°C (34°F)
Dewpoint: -3.7°C (25°F) [RH = 69%]
Pressure (altimeter): 30.34 inches Hg (1027.5 mb)
Winds: calm
Visibility: 10 or more miles (16+ km)
Ceiling: at least 12,000 feet AGL
Clouds: sky clear below 12,000 feet AGL
Weather: automated observation with no human augmentation;
there may or may not be significant weather present at this time

METAR text: KESN 260335Z AUTO 00000KT 10SM CLR 02/M04 A3033 RMK AO2 T00181040
Conditions at: KESN (EASTON/NEWNAM , MD, US) observed 0335 UTC 26 February 2021
Temperature: 1.8°C (35°F)
Dewpoint: -4.0°C (25°F) [RH = 65%]
Pressure (altimeter): 30.33 inches Hg (1027.2 mb)
Winds: calm
Visibility: 10 or more miles (16+ km)
Ceiling: at least 12,000 feet AGL
Clouds: sky clear below 12,000 feet AGL
Weather: automated observation with no human augmentation;
there may or may not be significant weather present at this time

 AIRPORT MAP

 RUNWAY INFORMATION
Runway 04 Runway length 5500 ft Runway width 100 ft
Runway elevation 36 ft Runway displaced threshold 0 ft Runway heading 31
Runway 22 Runway length 5500 ft Runway width 100 ft
Runway elevation 72 ft Runway displaced threshold 0 ft Runway heading 211
Runway 15 Runway length 4003 ft Runway width 100 ft
Runway elevation 33 ft Runway displaced threshold 0 ft Runway heading 138
Runway 33 Runway length 4003 ft Runway width 100 ft
Runway elevation 51 ft Runway displaced threshold 0 ft Runway heading 318

 AIRPORT FREQUENCIES
Type A/D Name POTOMAC AP Frequency 124.55 MHZ
Type AWOS Name AWOS 3 Frequency 124.475 MHZ
Type CLD Name POTOMAC CL Frequency 126.9 MHZ
Type UNIC Name CTAF/UNICO Frequency 122.95 MHZ

 AIRPORT NEAR NAVIGATION AIDS

-